Terminal Aerodrome Forecast
Issued by NWS Wilmington, OH

Current Version | Previous Version | Graphics & Text | Print | Product List | Glossary On
Versions: 1 2 3 4 5 6 7 8 9 10 11 12 13 14 15 16 17 18 19 20 21 22 23
000
FTUS41 KILN 271700
TAFDAY
TAF
KDAY 271739Z 2718/2818 23012G22KT P6SM VCSH BKN025
     FM271900 25012G22KT P6SM -SHRA VCTS BKN025CB
     FM272100 27013G23KT P6SM VCSH SCT012 OVC025
      TEMPO 2721/2723 BKN012
     FM280000 29011KT P6SM BKN040
     FM280900 30011KT P6SM VCSH OVC015
     FM281500 31012KT P6SM -SHRA OVC025=

USA.gov is the U.S. government's official web portal to all federal, state and local government web resources and services.